Warning: Javascript must be enabled to use all the features on this page!


Page Loading - Please Wait...

Click to hideNews Bulletins

Peak Streamflow for the Nation

USGS 01069500 Mousam River near West Kennebunk, Maine

York County, Maine
Hydrologic Unit Code 01060003
Latitude  43°25'06", Longitude  70°39'30" NAD83
Drainage area 99.00  square miles
Contributing drainage area 99.00  square miles
Gage datum 165.75 feet above NGVD29
Output formats
Table
Graph
Tab-separated file
peakfq (watstore) format
Reselect output format
Water
Year
Date Gage
Height
(feet)
Stream-
flow
(cfs)
1940 1940-04-13 5.05 2,0906
1941 1941-02-08 3.45 1,0106
1942 1942-03-10 4.14 1,4806
1943 1942-12-02 4.03 1,4006
1944 1944-04-25 3.20 8556
1945 1944-12-01 3.64 1,1406
1946 1945-11-23 3.272 9526
1947 1947-03-16 3.00 8156
1948 1948-03-23 3.68 1,2206
1949 1949-01-01 3.64 1,1806
1950 1950-04-06 2.95 7896
1951 1951-04-03 4.25 1,5806
1952 1952-04-06 5.04 2,3506
1953 1953-03-27 4.92 2,1906
1954 1954-09-12 5.69 2,8306
1955 1954-12-15 3.75 1,3306
1956 1956-01-10 3.91 1,4406
1957 1956-12-01 3.19 1,0006
1958 1958-01-27 3.76 1,4806
1959 1959-04-03 3.79 1,5006
1960 1960-04-06 4.33 1,9306
1961 1961-04-17 3.41 1,2406
1962 1962-04-02 4.03 1,7106
1963 1962-10-07 4.47 2,0506
1964 1963-11-10 2.792 8286
1965 1965-03-07 2.19 4976
1966 1966-03-25 3.26 1,1406
1967 1967-04-04 3.08 1,0206
1968 1968-03-19 3.35 1,2006
1969 1969-04-23 3.66 1,5306
1970 1970-02-11 4.09 1,8706
1971 1971-04-14 2.77 8696
1972 1972-03-23 3.14 1,1306
1973 1973-04-03 4.18 1,9506
1974 1973-12-18 3.29 1,2306
1975 1975-04-04 4.37 2,1206
1976 1976-04-02 3.18 1,1606
1977 1977-03-14 5.82 3,5406
1978 1978-05-17 3.68 1,5406
1979 1979-03-25 3.66 1,5206
1980 1980-04-11 3.80 1,6406
1981 1981-02-25 3.94 1,7606
1982 1982-06-03 3.06 1,1106
1983 1983-03-20 5.64 4,0206
1984 1984-04-06 4.97 3,1106
1997 1996-10-22 5.36 3,6006,7
2006 2006-05   6,1006,7,Bd
2007 2007-04   9,2306,7,Bd
2009 2008-11-26 3.63 1,5706
2010 2010-02-26 6.31 4,6406
2011 2011-04-17 3.32 1,3406
2012 2012-06-03 3.66 1,6306
2013 2012-12-22 2.72 8826
2014 2014-04-08 3.21 1,2306
2015 2015-04-21 3.29 1,2906
2016 2016-01-11 3.20 1,2206
2017 2017-04-07 3.32 1,3306
2018 2018-04-17 3.77 1,7206
2019 2019-04-27 3.13 1,1806
?
  Peak Gage-Height Qualification Codes.
?
  Peak Streamflow Qualification Codes.